Time;durP1;ratioP1;P1;durP2;ratioP2;P2;SDS_P1;SDS_P2;PMS_P1;PMS_P2;Temp;Humidity;BMP_temperature;BMP_pressure;BME280_temperature;BME280_humidity;BME280_pressure;Samples;Min_cycle;Max_cycle;Signal;HPM_P1;HPM_P2
2022/09/26 00:00:04;;;;;;;0.97;0.90;;;;;;;8.98;100.00;99796.84;5055239;28;20920;-55
2022/09/26 00:02:30;;;;;;;1.27;1.07;;;;;;;8.76;100.00;99801.03;5056681;28;20479;-55
2022/09/26 00:04:57;;;;;;;0.73;0.70;;;;;;;8.74;100.00;99806.38;5062238;28;20491;-54
2022/09/26 00:07:23;;;;;;;0.70;0.70;;;;;;;8.76;100.00;99799.25;5060478;28;20457;-55
2022/09/26 00:09:50;;;;;;;2.77;1.50;;;;;;;8.75;100.00;99794.88;5055277;28;20453;-56
2022/09/26 00:12:16;;;;;;;1.37;1.30;;;;;;;8.84;100.00;99789.31;5056330;28;20901;-55
2022/09/26 00:14:43;;;;;;;0.77;0.60;;;;;;;8.54;100.00;99801.66;5062357;28;20504;-55
2022/09/26 00:17:09;;;;;;;0.60;0.60;;;;;;;8.70;100.00;99803.88;5061680;28;20519;-56
2022/09/26 00:19:36;;;;;;;1.07;0.97;;;;;;;8.87;100.00;99801.59;5055282;28;20453;-55
2022/09/26 00:22:02;;;;;;;0.87;0.87;;;;;;;8.76;100.00;99803.69;5055910;28;21053;-55
2022/09/26 00:24:30;;;;;;;0.70;0.63;;;;;;;8.73;100.00;99799.34;5061842;28;20461;-55
2022/09/26 00:26:56;;;;;;;1.40;1.30;;;;;;;8.78;100.00;99791.28;5061828;28;20943;-56
2022/09/26 00:29:22;;;;;;;7.10;1.70;;;;;;;8.76;100.00;99793.09;5062359;28;20459;-56
2022/09/26 00:31:49;;;;;;;0.57;0.47;;;;;;;8.67;100.00;99794.25;5062111;28;20450;-55
2022/09/26 00:34:18;;;;;;;1.07;0.90;;;;;;;8.57;100.00;99796.28;5042561;28;20461;-55
2022/09/26 00:36:44;;;;;;;1.07;0.60;;;;;;;8.64;100.00;99793.47;5054974;28;20451;-55
2022/09/26 00:39:13;;;;;;;0.40;0.37;;;;;;;8.62;100.00;99790.84;5061100;28;20455;-56
2022/09/26 00:41:40;;;;;;;1.77;0.80;;;;;;;8.54;100.00;99791.06;5061962;28;20811;-56
2022/09/26 00:44:44;;;;;;;0.70;0.70;;;;;;;8.70;100.00;99780.91;5056035;28;20868;-55
2022/09/26 00:47:45;;;;;;;1.30;0.87;;;;;;;8.41;100.00;99784.38;5055012;28;20503;-55
2022/09/26 00:50:17;;;;;;;0.77;0.60;;;;;;;8.38;100.00;99773.88;5054911;28;20854;-56
2022/09/26 00:52:52;;;;;;;0.80;0.63;;;;;;;8.43;100.00;99771.97;5068336;28;20493;-55
2022/09/26 00:55:22;;;;;;;2.43;0.83;;;;;;;8.34;100.00;99764.28;5061782;28;20987;-55
2022/09/26 00:57:55;;;;;;;0.80;0.80;;;;;;;8.35;100.00;99773.94;5049356;28;20446;-55
2022/09/26 01:00:26;;;;;;;1.00;0.90;;;;;;;8.39;100.00;99772.97;5059718;28;20446;-55
2022/09/26 01:02:52;;;;;;;0.80;0.50;;;;;;;8.49;100.00;99766.47;5061711;28;20519;-55
2022/09/26 01:05:22;;;;;;;1.27;1.17;;;;;;;8.58;100.00;99760.06;5048758;28;20490;-56
2022/09/26 01:07:52;;;;;;;1.20;0.70;;;;;;;8.58;100.00;99762.72;5061707;28;20512;-55
2022/09/26 01:10:19;;;;;;;0.80;0.80;;;;;;;8.45;100.00;99756.03;5059782;28;20453;-56
2022/09/26 01:12:46;;;;;;;1.17;0.70;;;;;;;8.14;100.00;99750.69;5058520;28;20477;-55
2022/09/26 01:15:12;;;;;;;0.70;0.70;;;;;;;8.18;100.00;99744.41;5061531;28;20454;-55
2022/09/26 01:17:43;;;;;;;0.63;0.63;;;;;;;8.26;100.00;99745.94;5065064;28;20450;-56
2022/09/26 01:20:21;;;;;;;0.43;0.33;;;;;;;8.08;100.00;99749.06;5063857;28;20446;-55
2022/09/26 01:23:22;;;;;;;1.93;1.73;;;;;;;7.97;100.00;99744.09;5058232;28;20476;-55
2022/09/26 01:26:14;;;;;;;0.70;0.70;;;;;;;8.17;100.00;99735.59;5058279;28;20539;-55
2022/09/26 01:29:09;;;;;;;0.67;0.67;;;;;;;8.06;100.00;99739.44;5058892;28;20508;-56
2022/09/26 01:34:50;;;;;;;1.60;1.50;;;;;;;8.06;100.00;99729.72;5050287;28;20868;-55
2022/09/26 01:37:54;;;;;;;0.90;0.40;;;;;;;7.99;100.00;99729.03;5057953;28;20446;-55
2022/09/26 01:40:41;;;;;;;0.40;0.40;;;;;;;8.03;100.00;99735.09;5057781;28;20479;-56
2022/09/26 01:43:38;;;;;;;1.23;0.80;;;;;;;8.04;100.00;99726.25;5057900;28;20474;-56
2022/09/26 01:46:17;;;;;;;0.70;0.70;;;;;;;8.03;100.00;99722.72;5053949;28;20496;-55
2022/09/26 01:48:50;;;;;;;1.33;1.23;;;;;;;7.80;100.00;99714.53;5057913;28;20454;-56
2022/09/26 01:51:42;;;;;;;0.50;0.40;;;;;;;7.98;100.00;99714.06;5067142;28;20453;-55
2022/09/26 01:54:17;;;;;;;0.50;0.50;;;;;;;8.05;100.00;99709.44;5059879;28;20462;-56
2022/09/26 01:56:47;;;;;;;0.53;0.40;;;;;;;7.98;100.00;99703.47;5069360;28;20502;-56
2022/09/26 01:59:20;;;;;;;0.50;0.50;;;;;;;7.98;100.00;99703.47;5058298;28;20520;-55
2022/09/26 02:01:50;;;;;;;3.03;0.60;;;;;;;8.02;100.00;99697.19;5046118;28;20942;-55
2022/09/26 02:04:23;;;;;;;1.17;0.87;;;;;;;7.96;100.00;99680.63;5057524;28;20459;-55
2022/09/26 02:06:56;;;;;;;1.00;0.80;;;;;;;8.10;100.00;99696.13;5061025;28;20543;-55
2022/09/26 02:09:31;;;;;;;0.70;0.60;;;;;;;8.19;100.00;99698.47;5064379;28;20447;-55
2022/09/26 02:12:01;;;;;;;0.60;0.60;;;;;;;8.24;100.00;99694.81;5061819;28;20470;-56
2022/09/26 02:14:33;;;;;;;0.60;0.57;;;;;;;8.24;100.00;99691.28;5057322;28;20456;-56
2022/09/26 02:17:09;;;;;;;0.70;0.60;;;;;;;8.31;100.00;99687.53;5058834;28;20993;-56
2022/09/26 02:19:49;;;;;;;3.37;1.40;;;;;;;8.18;100.00;99692.31;5064609;28;20450;-56
2022/09/26 02:22:16;;;;;;;1.23;1.00;;;;;;;8.27;100.00;99686.78;5063682;28;20476;-55
2022/09/26 02:24:42;;;;;;;0.53;0.53;;;;;;;8.18;100.00;99684.38;5058876;28;20483;-56
2022/09/26 02:27:08;;;;;;;0.77;0.77;;;;;;;8.17;100.00;99682.66;5057005;28;21022;-55
2022/09/26 02:29:35;;;;;;;0.70;0.70;;;;;;;7.99;100.00;99681.41;5061770;28;20458;-55
2022/09/26 02:32:11;;;;;;;0.63;0.63;;;;;;;7.92;100.00;99671.88;5063632;28;20481;-55
2022/09/26 02:34:43;;;;;;;2.30;1.03;;;;;;;7.86;100.00;99668.53;5060824;28;21060;-56
2022/09/26 02:37:12;;;;;;;0.60;0.57;;;;;;;7.80;100.00;99661.63;5057211;28;20889;-56
2022/09/26 02:39:40;;;;;;;2.03;1.37;;;;;;;7.87;100.00;99662.34;5058726;28;20454;-56
2022/09/26 02:42:30;;;;;;;2.60;0.93;;;;;;;7.92;100.00;99660.44;5063365;28;20528;-55
2022/09/26 02:45:10;;;;;;;1.50;1.17;;;;;;;8.13;100.00;99653.66;5063656;28;21006;-56
2022/09/26 02:47:58;;;;;;;0.73;0.73;;;;;;;7.87;100.00;99660.56;5060710;28;20994;-55
2022/09/26 02:50:34;;;;;;;0.70;0.70;;;;;;;7.83;100.00;99655.41;5065533;28;20446;-56
2022/09/26 02:53:16;;;;;;;1.83;1.63;;;;;;;7.64;100.00;99652.38;5068690;28;20489;-55
2022/09/26 02:56:25;;;;;;;0.60;0.60;;;;;;;7.61;100.00;99652.47;5061081;28;20446;-55
2022/09/26 02:59:09;;;;;;;1.00;1.00;;;;;;;7.59;100.00;99654.28;5060009;28;20936;-55
2022/09/26 03:01:48;;;;;;;5.07;0.93;;;;;;;7.66;100.00;99650.56;5063491;28;20451;-55
2022/09/26 03:04:23;;;;;;;0.40;0.27;;;;;;;7.67;100.00;99644.34;5063846;28;20484;-55
2022/09/26 03:06:54;;;;;;;0.80;0.80;;;;;;;7.62;100.00;99625.97;5070046;28;20484;-55
2022/09/26 03:09:23;;;;;;;1.30;0.70;;;;;;;7.65;100.00;99630.31;5055407;28;20499;-55
2022/09/26 03:11:51;;;;;;;0.70;0.70;;;;;;;7.80;100.00;99629.00;5060208;28;20497;-55
2022/09/26 03:14:19;;;;;;;0.47;0.40;;;;;;;7.71;100.00;99624.88;5063371;28;20962;-55
2022/09/26 03:16:49;;;;;;;1.33;0.77;;;;;;;7.75;100.00;99621.22;5060515;28;20508;-55
2022/09/26 03:19:18;;;;;;;0.50;0.50;;;;;;;7.76;100.00;99627.38;5056353;28;20449;-55
2022/09/26 03:21:45;;;;;;;1.17;0.93;;;;;;;7.76;100.00;99624.72;5058066;28;20455;-55
2022/09/26 03:24:12;;;;;;;0.87;0.70;;;;;;;7.91;100.00;99613.72;5063090;28;20512;-55
2022/09/26 03:26:40;;;;;;;2.13;0.87;;;;;;;7.95;100.00;99612.72;5060930;28;20490;-55
2022/09/26 03:29:07;;;;;;;1.23;1.17;;;;;;;8.01;100.00;99602.81;5056113;28;20465;-55
2022/09/26 03:31:33;;;;;;;2.47;2.10;;;;;;;8.15;100.00;99609.50;5057014;28;20466;-55
2022/09/26 03:34:00;;;;;;;2.73;1.23;;;;;;;8.09;100.00;99607.03;5061762;28;20497;-55
2022/09/26 03:36:27;;;;;;;1.90;1.53;;;;;;;8.13;100.00;99603.38;5055958;28;20507;-55
2022/09/26 03:38:53;;;;;;;14.73;2.00;;;;;;;8.22;100.00;99595.13;5062690;28;20500;-55
2022/09/26 03:41:20;;;;;;;16.63;3.93;;;;;;;8.21;100.00;99593.41;5062357;28;20515;-55
2022/09/26 03:43:46;;;;;;;2.03;1.90;;;;;;;8.16;100.00;99584.75;5055742;28;21006;-55
2022/09/26 03:46:14;;;;;;;4.27;2.57;;;;;;;8.15;100.00;99572.44;5056191;28;20499;-55
2022/09/26 03:48:41;;;;;;;2.43;1.90;;;;;;;8.15;100.00;99577.72;5055435;28;20450;-55
2022/09/26 03:51:12;;;;;;;1.30;1.20;;;;;;;8.33;100.00;99577.16;5052238;28;20940;-55
2022/09/26 03:53:41;;;;;;;1.80;1.70;;;;;;;8.31;100.00;99566.59;5043466;28;20824;-55
2022/09/26 03:56:10;;;;;;;1.00;1.00;;;;;;;8.33;100.00;99558.63;5055171;28;20450;-55
2022/09/26 03:58:37;;;;;;;3.67;1.33;;;;;;;8.41;100.00;99559.28;5056782;28;20453;-55
2022/09/26 04:01:05;;;;;;;0.60;0.60;;;;;;;8.40;100.00;99556.69;5055430;28;20982;-55
2022/09/26 04:03:33;;;;;;;2.37;2.10;;;;;;;8.48;100.00;99555.50;5060857;28;20476;-55
2022/09/26 04:06:00;;;;;;;1.60;1.37;;;;;;;8.52;100.00;99546.56;5062028;28;20489;-55
2022/09/26 04:08:26;;;;;;;0.67;0.67;;;;;;;8.55;100.00;99551.78;5058130;28;20449;-55
2022/09/26 04:11:01;;;;;;;1.17;1.07;;;;;;;8.49;100.00;99544.00;5055142;28;20454;-55
2022/09/26 04:13:27;;;;;;;1.00;0.90;;;;;;;8.59;100.00;99542.78;5058899;28;20467;-55
2022/09/26 04:16:14;;;;;;;2.30;2.17;;;;;;;8.60;100.00;99541.00;5062441;28;20529;-55
2022/09/26 04:18:41;;;;;;;1.30;1.20;;;;;;;8.72;100.00;99542.41;5061922;28;20450;-55
2022/09/26 04:21:10;;;;;;;1.17;1.13;;;;;;;8.60;100.00;99548.97;5055394;28;20453;-55
2022/09/26 04:23:39;;;;;;;1.90;1.80;;;;;;;8.60;100.00;99527.78;5055338;28;21056;-55
2022/09/26 04:26:11;;;;;;;0.80;0.80;;;;;;;8.59;100.00;99529.56;5042050;28;20493;-55
2022/09/26 04:28:39;;;;;;;2.30;1.97;;;;;;;8.57;100.00;99525.22;5055587;28;20508;-55
2022/09/26 04:31:07;;;;;;;1.30;1.20;;;;;;;8.60;100.00;99515.38;5061019;28;20930;-55
2022/09/26 04:33:33;;;;;;;5.10;1.00;;;;;;;8.61;100.00;99505.66;5062109;28;20525;-55
2022/09/26 04:36:04;;;;;;;1.37;1.27;;;;;;;8.59;100.00;99505.72;5055999;28;20455;-55
2022/09/26 04:38:33;;;;;;;1.30;1.27;;;;;;;8.72;100.00;99497.34;5061770;28;20446;-55
2022/09/26 04:41:09;;;;;;;1.93;1.80;;;;;;;8.76;100.00;99491.03;5057831;28;21262;-55
2022/09/26 04:43:36;;;;;;;1.70;1.60;;;;;;;8.83;100.00;99497.88;5055111;28;20465;-54
2022/09/26 04:46:12;;;;;;;0.70;0.63;;;;;;;8.92;100.00;99500.22;5061762;28;20494;-55
2022/09/26 04:48:45;;;;;;;1.50;1.13;;;;;;;8.74;100.00;99500.81;5066062;28;20509;-55
2022/09/26 04:51:13;;;;;;;1.80;1.70;;;;;;;8.70;100.00;99496.56;5065840;28;20452;-55
2022/09/26 04:53:40;;;;;;;2.97;2.17;;;;;;;8.86;100.00;99497.75;5065220;28;20540;-54
2022/09/26 04:56:09;;;;;;;2.70;1.07;;;;;;;8.76;100.00;99491.03;5065000;28;20959;-55
2022/09/26 04:58:40;;;;;;;1.80;1.07;;;;;;;8.78;100.00;99490.09;5064861;28;20469;-54
2022/09/26 05:01:09;;;;;;;2.13;1.90;;;;;;;8.92;100.00;99488.75;5065544;28;20445;-54
2022/09/26 05:03:36;;;;;;;1.97;1.77;;;;;;;8.87;100.00;99491.53;5060719;28;20473;-55
2022/09/26 05:06:07;;;;;;;1.33;1.23;;;;;;;8.74;100.00;99485.78;5070031;28;20523;-55
2022/09/26 05:08:35;;;;;;;1.03;1.03;;;;;;;8.79;100.00;99481.22;5061638;28;21015;-54
2022/09/26 05:11:01;;;;;;;0.70;0.70;;;;;;;8.67;100.00;99476.34;5058803;28;20774;-55
2022/09/26 05:13:29;;;;;;;2.07;1.97;;;;;;;8.67;100.00;99484.28;5062217;28;20478;-51
2022/09/26 05:15:58;;;;;;;1.73;1.37;;;;;;;8.60;100.00;99478.31;5065432;28;21041;-53
2022/09/26 05:18:25;;;;;;;11.23;1.70;;;;;;;8.52;100.00;99476.84;5062262;28;20453;-52
2022/09/26 05:20:52;;;;;;;13.77;1.13;;;;;;;8.44;100.00;99471.78;5058265;28;20450;-53
2022/09/26 05:26:18;;;;;;;1.87;1.77;;;;;;;8.43;100.00;99472.72;5059224;28;20493;-52
2022/09/26 05:29:00;;;;;;;35.57;2.10;;;;;;;8.45;100.00;99460.28;5058124;28;20446;-53
2022/09/26 05:31:35;;;;;;;1.50;1.40;;;;;;;8.53;100.00;99468.84;5059819;28;20495;-53
2022/09/26 05:34:06;;;;;;;2.87;1.80;;;;;;;8.41;100.00;99468.38;5064829;28;20975;-51
2022/09/26 05:36:33;;;;;;;5.00;2.67;;;;;;;8.40;100.00;99456.94;5058368;28;20451;-53
2022/09/26 05:39:00;;;;;;;1.97;1.80;;;;;;;8.30;100.00;99463.41;5064828;28;20457;-53
2022/09/26 05:41:29;;;;;;;2.73;2.63;;;;;;;8.58;100.00;99466.91;5064600;28;20453;-53
2022/09/26 05:43:56;;;;;;;2.77;2.57;;;;;;;8.54;100.00;99457.34;5064784;28;20528;-53
2022/09/26 05:46:24;;;;;;;15.63;2.07;;;;;;;8.40;100.00;99450.78;5064736;28;20552;-53
2022/09/26 05:48:51;;;;;;;1.07;1.07;;;;;;;8.37;100.00;99462.34;5058753;28;21273;-53
2022/09/26 05:51:19;;;;;;;6.93;2.97;;;;;;;8.45;100.00;99457.63;5065649;28;20512;-53
2022/09/26 05:53:48;;;;;;;1.97;1.80;;;;;;;8.36;100.00;99460.59;5058805;28;20978;-53
2022/09/26 05:56:16;;;;;;;5.60;2.00;;;;;;;8.42;100.00;99456.88;5055041;28;20504;-53
2022/09/26 05:58:44;;;;;;;5.10;2.73;;;;;;;8.54;100.00;99459.97;5060010;28;20450;-53
2022/09/26 06:01:13;;;;;;;12.27;2.83;;;;;;;8.38;100.00;99449.97;5057836;28;20454;-53
2022/09/26 06:03:44;;;;;;;1.23;1.00;;;;;;;8.64;100.00;99460.53;5061595;28;20474;-53
2022/09/26 06:06:14;;;;;;;2.03;1.83;;;;;;;8.61;100.00;99452.69;5064131;28;20457;-53
2022/09/26 06:08:41;;;;;;;3.57;3.03;;;;;;;8.80;100.00;99461.75;5061370;28;20866;-53
2022/09/26 06:11:21;;;;;;;1.20;1.13;;;;;;;8.88;100.00;99448.22;5056952;28;20969;-53
2022/09/26 06:13:47;;;;;;;1.43;1.37;;;;;;;8.88;100.00;99449.06;5058465;28;20527;-54
2022/09/26 06:16:18;;;;;;;3.63;3.27;;;;;;;9.02;100.00;99445.06;5063931;28;20450;-53
2022/09/26 06:18:47;;;;;;;1.60;1.50;;;;;;;9.04;100.00;99443.22;5063828;28;20524;-53
2022/09/26 06:21:15;;;;;;;2.33;2.23;;;;;;;9.18;100.00;99433.88;5064121;28;20450;-53
2022/09/26 06:23:43;;;;;;;8.30;2.73;;;;;;;9.11;100.00;99431.50;5063764;28;20469;-53
2022/09/26 06:26:14;;;;;;;1.93;1.83;;;;;;;9.29;100.00;99436.09;5058009;28;20875;-53
2022/09/26 06:28:41;;;;;;;3.27;2.97;;;;;;;9.54;100.00;99429.88;5056922;28;21023;-53
2022/09/26 06:31:13;;;;;;;21.20;3.40;;;;;;;9.68;100.00;99433.75;5062104;28;20839;-54
2022/09/26 06:33:40;;;;;;;4.17;3.40;;;;;;;9.61;100.00;99428.75;5063657;28;20480;-53
2022/09/26 06:36:08;;;;;;;6.20;3.37;;;;;;;9.69;100.00;99437.25;5057370;28;20455;-53
2022/09/26 06:38:36;;;;;;;2.47;2.37;;;;;;;9.75;100.00;99429.94;5063595;28;20451;-53
2022/09/26 06:41:03;;;;;;;3.07;2.87;;;;;;;9.89;100.00;99423.22;5060042;28;20457;-53
2022/09/26 06:43:30;;;;;;;7.83;4.17;;;;;;;10.33;100.00;99419.66;5056643;28;20474;-54
2022/09/26 06:45:56;;;;;;;6.50;3.87;;;;;;;10.45;100.00;99415.63;5060140;28;20447;-54
2022/09/26 06:48:24;;;;;;;32.37;4.43;;;;;;;10.44;100.00;99423.66;5063929;28;20498;-53
2022/09/26 06:50:52;;;;;;;3.10;2.80;;;;;;;10.42;100.00;99418.41;5060932;28;20441;-53
2022/09/26 06:53:18;;;;;;;1.47;1.37;;;;;;;10.89;100.00;99416.34;5065710;28;20482;-53
2022/09/26 06:55:45;;;;;;;6.50;4.17;;;;;;;11.10;100.00;99414.56;5060686;28;20970;-53
2022/09/26 06:58:11;;;;;;;3.40;3.20;;;;;;;10.98;100.00;99407.97;5064417;28;20450;-53
2022/09/26 07:00:38;;;;;;;6.20;3.27;;;;;;;10.72;100.00;99415.38;5061296;28;20967;-53
2022/09/26 07:03:05;;;;;;;4.90;4.47;;;;;;;10.96;100.00;99415.16;5056712;28;20561;-53
2022/09/26 07:05:31;;;;;;;3.00;2.83;;;;;;;10.84;100.00;99407.72;5069565;28;20985;-53
2022/09/26 07:07:58;;;;;;;8.97;2.50;;;;;;;11.06;100.00;99406.75;5056022;28;20493;-53
2022/09/26 07:10:24;;;;;;;3.33;3.13;;;;;;;11.01;100.00;99406.97;5058557;28;20501;-51
2022/09/26 07:12:51;;;;;;;4.90;4.23;;;;;;;11.17;100.00;99392.06;5063318;28;20474;-53
2022/09/26 07:15:19;;;;;;;11.00;4.27;;;;;;;11.03;100.00;99401.59;5061553;28;20454;-53
2022/09/26 07:17:49;;;;;;;4.93;3.23;;;;;;;11.05;100.00;99399.72;5056097;28;20454;-53
2022/09/26 07:20:18;;;;;;;5.17;4.87;;;;;;;11.31;100.00;99393.22;5057376;28;20455;-53
2022/09/26 07:22:45;;;;;;;4.33;4.03;;;;;;;11.56;100.00;99389.34;5063068;28;20470;-53
2022/09/26 07:25:12;;;;;;;3.10;2.90;;;;;;;11.57;100.00;99395.53;5062782;28;20515;-53
2022/09/26 07:27:48;;;;;;;4.70;4.40;;;;;;;11.71;100.00;99398.41;5042883;28;20998;-54
2022/09/26 07:30:15;;;;;;;5.17;3.87;;;;;;;11.75;100.00;99396.44;5056359;28;20454;-54
2022/09/26 07:32:46;;;;;;;4.60;4.00;;;;;;;12.17;100.00;99388.22;5062082;28;20850;-54
2022/09/26 07:35:16;;;;;;;1.90;1.80;;;;;;;11.99;100.00;99387.31;5062612;28;20503;-53
2022/09/26 07:37:43;;;;;;;3.37;3.17;;;;;;;11.61;100.00;99381.13;5058150;28;20446;-54
2022/09/26 07:40:10;;;;;;;9.20;4.53;;;;;;;11.75;100.00;99375.16;5055533;28;20462;-53
2022/09/26 07:42:37;;;;;;;1.87;1.77;;;;;;;12.17;100.00;99377.56;5060167;28;20481;-54
2022/09/26 07:45:07;;;;;;;4.40;3.60;;;;;;;12.08;100.00;99375.34;5062732;28;20515;-54
2022/09/26 07:50:38;;;;;;;8.00;4.17;;;;;;;12.02;100.00;99363.19;5051842;28;20469;-54
2022/09/26 07:53:04;;;;;;;11.13;3.07;;;;;;;11.90;100.00;99366.44;5066605;28;20519;-54
2022/09/26 07:55:31;;;;;;;4.30;3.90;;;;;;;11.75;100.00;99364.50;5058363;28;20453;-53
2022/09/26 07:57:58;;;;;;;4.53;2.83;;;;;;;12.25;100.00;99367.38;5065589;28;20837;-54
2022/09/26 08:00:29;;;;;;;3.80;3.60;;;;;;;12.48;100.00;99357.38;5058191;28;20954;-54
2022/09/26 08:02:59;;;;;;;2.93;2.30;;;;;;;12.28;100.00;99371.69;5055148;28;20470;-54
2022/09/26 08:05:26;;;;;;;2.90;2.30;;;;;;;12.29;100.00;99368.09;5058436;28;20545;-54
2022/09/26 08:07:52;;;;;;;3.93;3.73;;;;;;;12.37;100.00;99360.56;5062250;28;20492;-54
2022/09/26 08:10:22;;;;;;;6.57;3.90;;;;;;;13.09;100.00;99365.66;5059625;28;20862;-54
2022/09/26 08:12:49;;;;;;;2.83;2.63;;;;;;;12.71;100.00;99362.34;5055299;28;20482;-54
2022/09/26 08:15:15;;;;;;;2.37;2.10;;;;;;;12.85;100.00;99351.81;5057852;28;20454;-54
2022/09/26 08:17:42;;;;;;;8.60;3.30;;;;;;;13.07;100.00;99353.34;5062512;28;20454;-54
2022/09/26 08:20:09;;;;;;;2.00;1.80;;;;;;;12.79;100.00;99354.81;5059142;28;21026;-54
2022/09/26 08:22:36;;;;;;;5.13;2.53;;;;;;;13.17;100.00;99347.44;5055453;28;20473;-54
2022/09/26 08:25:05;;;;;;;4.50;1.70;;;;;;;13.10;100.00;99354.03;5057352;28;20473;-54
2022/09/26 08:27:32;;;;;;;0.93;0.93;;;;;;;13.20;100.00;99349.13;5061750;28;21089;-54
2022/09/26 08:29:59;;;;;;;1.23;1.13;;;;;;;12.96;100.00;99345.91;5061068;28;20867;-54
2022/09/26 08:32:26;;;;;;;1.60;1.50;;;;;;;13.10;100.00;99337.19;5055617;28;20466;-54
2022/09/26 08:34:52;;;;;;;2.20;1.27;;;;;;;13.48;100.00;99338.63;5062302;28;20476;-54
2022/09/26 08:37:19;;;;;;;2.57;2.37;;;;;;;13.48;100.00;99346.66;5055370;28;20971;-54
2022/09/26 08:39:47;;;;;;;5.17;1.17;;;;;;;13.60;100.00;99335.28;5056011;28;20451;-54
2022/09/26 08:42:33;;;;;;;6.67;1.03;;;;;;;13.68;100.00;99332.16;5061841;28;20481;-54
2022/09/26 08:48:31;;;;;;;1.40;1.30;;;;;;;14.38;98.31;99335.22;5061944;28;20489;-54
2022/09/26 08:51:11;;;;;;;1.67;1.13;;;;;;;14.44;98.02;99338.44;5060270;28;20498;-52
2022/09/26 08:53:47;;;;;;;2.77;1.30;;;;;;;14.35;97.04;99338.09;5050158;23;20506;-49
2022/09/26 08:56:29;;;;;;;0.80;0.80;;;;;;;14.92;96.57;99336.41;5047500;28;20500;-51
2022/09/26 08:58:59;;;;;;;3.57;2.07;;;;;;;15.00;94.44;99338.63;5038311;28;20447;-50
2022/09/26 09:01:34;;;;;;;3.73;1.50;;;;;;;15.04;93.34;99335.63;5041753;28;20478;-50
2022/09/26 09:04:11;;;;;;;1.60;1.50;;;;;;;15.12;93.46;99337.84;5028658;28;20446;-51
2022/09/26 09:06:37;;;;;;;1.50;1.40;;;;;;;15.23;93.27;99334.50;5028444;28;21025;-50
2022/09/26 09:09:04;;;;;;;0.93;0.80;;;;;;;15.00;93.55;99330.59;5028362;28;20518;-50
2022/09/26 09:11:49;;;;;;;1.57;0.97;;;;;;;14.65;92.17;99330.91;5028236;28;20482;-53
2022/09/26 09:14:31;;;;;;;1.80;1.70;;;;;;;14.77;91.88;99329.31;5028704;28;20448;-49
2022/09/26 09:17:12;;;;;;;1.70;1.60;;;;;;;14.58;93.72;99321.56;5028454;28;20452;-48
2022/09/26 09:20:03;;;;;;;2.40;0.83;;;;;;;14.97;93.06;99320.09;5003630;28;20451;-48
2022/09/26 09:23:09;;;;;;;3.00;1.23;;;;;;;14.94;91.95;99310.44;5028491;28;20545;-47
2022/09/26 09:25:48;;;;;;;11.77;1.83;;;;;;;15.05;92.39;99302.56;5028323;28;20454;-48
2022/09/26 09:28:44;;;;;;;2.50;1.70;;;;;;;15.21;92.02;99298.91;5028073;28;20495;-47
2022/09/26 09:31:14;;;;;;;2.93;2.73;;;;;;;15.14;92.02;99301.13;5006641;28;20877;-48
2022/09/26 09:33:46;;;;;;;2.00;1.90;;;;;;;15.25;91.40;99295.13;5031694;28;20479;-51
2022/09/26 09:36:17;;;;;;;2.03;1.93;;;;;;;15.54;90.11;99283.38;5031983;28;20447;-50
2022/09/26 09:38:47;;;;;;;1.20;1.10;;;;;;;15.38;90.01;99283.53;5031627;28;20826;-51
2022/09/26 09:41:17;;;;;;;1.10;1.00;;;;;;;15.75;89.21;99283.81;5031734;28;20506;-51
2022/09/26 09:43:50;;;;;;;4.90;2.20;;;;;;;15.46;91.10;99279.47;5031257;28;20892;-51
2022/09/26 09:46:25;;;;;;;2.83;1.80;;;;;;;15.11;91.14;99283.47;5032084;28;20506;-52
2022/09/26 09:48:57;;;;;;;3.17;2.27;;;;;;;15.41;91.51;99271.75;5031298;28;20491;-51
2022/09/26 09:52:02;;;;;;;0.90;0.70;;;;;;;15.37;91.29;99273.75;5013675;28;20995;-50
2022/09/26 09:54:42;;;;;;;3.13;1.43;;;;;;;15.12;91.51;99276.28;4945619;28;20860;-53
2022/09/26 09:57:29;;;;;;;1.10;1.00;;;;;;;15.14;92.06;99268.16;5030385;28;20458;-51
2022/09/26 10:00:06;;;;;;;1.30;1.17;;;;;;;15.05;90.26;99270.44;5031290;28;20506;-51
2022/09/26 10:03:01;;;;;;;1.73;1.63;;;;;;;14.85;91.86;99257.47;5031144;28;20482;-52
2022/09/26 10:05:46;;;;;;;7.00;2.33;;;;;;;15.56;91.83;99257.34;5013487;28;20452;-51
2022/09/26 10:08:25;;;;;;;7.03;1.80;;;;;;;15.57;90.85;99256.38;5005334;28;20574;-51
2022/09/26 10:10:58;;;;;;;1.57;1.47;;;;;;;15.55;89.07;99252.94;5030920;28;20936;-50
2022/09/26 10:13:25;;;;;;;2.37;2.27;;;;;;;15.47;88.92;99246.38;5031193;28;20519;-49
2022/09/26 10:15:58;;;;;;;2.83;2.63;;;;;;;15.57;89.41;99240.31;5031368;28;20829;-51
2022/09/26 10:18:25;;;;;;;1.73;1.63;;;;;;;15.59;88.55;99233.06;5031250;28;20444;-50
2022/09/26 10:20:56;;;;;;;2.63;2.47;;;;;;;15.73;87.67;99242.00;5030908;28;20451;-51
2022/09/26 10:23:31;;;;;;;2.63;1.97;;;;;;;15.72;87.17;99232.25;5030906;28;20471;-54
2022/09/26 10:26:03;;;;;;;5.40;2.70;;;;;;;16.05;87.59;99238.03;5030608;28;20509;-51
2022/09/26 10:28:36;;;;;;;2.53;2.33;;;;;;;16.44;84.48;99230.88;5030799;28;20546;-53
2022/09/26 10:31:09;;;;;;;1.47;1.37;;;;;;;16.21;83.98;99229.81;5031058;28;20506;-50
2022/09/26 10:33:42;;;;;;;7.53;1.83;;;;;;;16.38;83.90;99234.84;5030636;28;20471;-51
2022/09/26 10:36:20;;;;;;;4.93;1.70;;;;;;;16.28;81.77;99228.41;5021620;28;20479;-51
2022/09/26 10:40:44;;;;;;;4.63;2.27;;;;;;;15.85;83.18;99228.66;5028899;28;20869;-51
2022/09/26 10:41:41;;;;;;;2.70;1.80;;;;;;;15.92;84.14;99223.75;5030082;28;20513;-50
2022/09/26 10:44:22;;;;;;;2.30;1.53;;;;;;;15.93;84.92;99225.47;5030304;28;20483;-50
2022/09/26 10:46:51;;;;;;;2.17;1.43;;;;;;;16.15;84.74;99216.81;5030361;28;20455;-53
2022/09/26 10:49:23;;;;;;;2.10;1.77;;;;;;;16.33;84.44;99218.22;5028111;28;21073;-51
2022/09/26 10:52:00;;;;;;;1.13;1.03;;;;;;;15.96;84.30;99217.22;5015878;28;20447;-52
2022/09/26 10:54:40;;;;;;;1.43;1.33;;;;;;;16.10;84.19;99219.81;5030513;28;20459;-51
2022/09/26 10:57:35;;;;;;;1.70;1.60;;;;;;;16.07;84.69;99219.16;5008656;28;20972;-51
2022/09/26 11:00:05;;;;;;;2.97;1.30;;;;;;;16.13;84.44;99218.72;5026521;28;20474;-51
2022/09/26 11:02:32;;;;;;;13.90;1.87;;;;;;;16.04;82.76;99212.19;5030485;28;20468;-52
2022/09/26 11:07:51;;;;;;;1.47;0.93;;;;;;;16.15;82.09;99211.44;5029774;28;20585;-51
2022/09/26 11:10:31;;;;;;;2.40;1.40;;;;;;;16.38;80.63;99209.84;5030044;28;20448;-51
2022/09/26 11:13:01;;;;;;;1.20;0.93;;;;;;;16.16;80.07;99208.66;5029725;28;20529;-52
2022/09/26 11:15:28;;;;;;;1.10;1.07;;;;;;;16.24;80.08;99205.44;5029844;28;20498;-51
2022/09/26 11:17:55;;;;;;;0.80;0.77;;;;;;;16.26;79.14;99200.84;5003644;28;20451;-49
2022/09/26 11:20:46;;;;;;;1.37;0.90;;;;;;;16.04;80.84;99201.47;5030111;28;20513;-50
2022/09/26 11:23:21;;;;;;;0.80;0.60;;;;;;;16.00;81.90;99199.94;5010312;28;20471;-51
2022/09/26 11:26:17;;;;;;;2.83;0.70;;;;;;;16.15;81.84;99192.66;5012251;28;20501;-50
2022/09/26 11:29:03;;;;;;;24.33;2.00;;;;;;;16.22;81.65;99180.56;5029391;28;20491;-50
2022/09/26 11:31:39;;;;;;;2.00;0.50;;;;;;;15.97;81.21;99179.56;5030034;28;20467;-51
2022/09/26 11:34:12;;;;;;;0.73;0.70;;;;;;;16.13;83.17;99175.84;5029413;28;20843;-52
2022/09/26 11:37:03;;;;;;;0.67;0.67;;;;;;;16.29;82.55;99163.94;5029234;28;20448;-53
2022/09/26 11:40:02;;;;;;;9.20;1.20;;;;;;;16.08;84.74;99164.59;5029242;28;20506;-50
2022/09/26 11:42:43;;;;;;;0.87;0.87;;;;;;;15.98;83.67;99156.31;5008602;28;20843;-50
2022/09/26 11:45:39;;;;;;;7.50;2.27;;;;;;;16.27;84.72;99148.91;5029175;28;20505;-51
2022/09/26 11:48:24;;;;;;;0.70;0.70;;;;;;;16.11;83.54;99143.78;4974441;28;20489;-51
2022/09/26 11:51:18;;;;;;;4.20;0.50;;;;;;;16.38;82.38;99137.44;5014448;28;20522;-51
2022/09/26 11:54:05;;;;;;;1.70;0.70;;;;;;;15.98;82.27;99135.72;5004237;28;20491;-50
2022/09/26 11:56:47;;;;;;;5.10;0.80;;;;;;;16.15;84.75;99134.53;5028167;28;20866;-51
2022/09/26 11:59:30;;;;;;;2.93;1.03;;;;;;;16.18;84.29;99133.50;5029244;28;20459;-52
2022/09/26 12:02:14;;;;;;;1.53;1.17;;;;;;;16.20;85.89;99132.41;4989035;28;20929;-52
2022/09/26 12:05:02;;;;;;;0.70;0.60;;;;;;;15.88;90.42;99136.44;5028880;28;20811;-51
2022/09/26 12:07:51;;;;;;;2.50;0.80;;;;;;;15.46;94.19;99130.34;5029068;28;20510;-54
2022/09/26 12:10:35;;;;;;;5.40;1.23;;;;;;;15.35;96.28;99119.47;5028940;28;20980;-53
2022/09/26 12:13:11;;;;;;;4.73;1.57;;;;;;;15.43;97.63;99121.66;5028699;28;20479;-55